Time;durP1;ratioP1;P1;durP2;ratioP2;P2;SDS_P1;SDS_P2;PMS_P1;PMS_P2;Temp;Humidity;BMP_temperature;BMP_pressure;BME280_temperature;BME280_humidity;BME280_pressure;Samples;Min_cycle;Max_cycle;Signal;HPM_P1;HPM_P2
2023/05/26 00:00:49;;;;;;;0.20;0.20;;;8.80;99.90;;;;;;4996364;28;20199;-67
2023/05/26 00:03:16;;;;;;;0.20;0.20;;;8.70;99.90;;;;;;4995857;28;20698;-68
2023/05/26 00:05:43;;;;;;;0.20;0.20;;;8.60;99.90;;;;;;4996375;28;20200;-67
2023/05/26 00:08:09;;;;;;;0.20;0.20;;;8.60;99.90;;;;;;4996170;28;20195;-67
2023/05/26 00:10:35;;;;;;;0.20;0.20;;;8.60;99.90;;;;;;4978233;28;20223;-70
2023/05/26 00:13:01;;;;;;;0.52;0.47;;;8.60;99.90;;;;;;4996129;28;20191;-67
2023/05/26 00:15:27;;;;;;;0.20;0.20;;;8.50;99.90;;;;;;4995757;28;20214;-68
2023/05/26 00:17:53;;;;;;;1.75;1.38;;;8.50;99.90;;;;;;4996050;28;20195;-69
2023/05/26 00:20:18;;;;;;;0.30;0.30;;;8.50;99.90;;;;;;4995911;28;20200;-69
2023/05/26 00:22:44;;;;;;;0.70;0.70;;;8.50;99.90;;;;;;4995699;28;20604;-69
2023/05/26 00:25:10;;;;;;;0.60;0.60;;;8.40;99.90;;;;;;4995789;28;20191;-70
2023/05/26 00:27:36;;;;;;;0.95;0.95;;;8.30;99.90;;;;;;4995596;28;20195;-68
2023/05/26 00:30:02;;;;;;;0.60;0.60;;;8.00;99.90;;;;;;4995787;28;20191;-70
2023/05/26 00:32:28;;;;;;;0.60;0.60;;;7.80;99.90;;;;;;4995356;28;20737;-69
2023/05/26 00:34:54;;;;;;;0.63;0.63;;;7.60;99.90;;;;;;4995704;28;20234;-69
2023/05/26 00:37:22;;;;;;;0.60;0.60;;;7.40;99.90;;;;;;4978192;28;20245;-68
2023/05/26 00:39:48;;;;;;;0.70;0.70;;;7.10;99.90;;;;;;4995572;28;20191;-69
2023/05/26 00:42:13;;;;;;;0.70;0.70;;;6.90;99.90;;;;;;4995540;28;20214;-69
2023/05/26 00:44:39;;;;;;;0.80;0.80;;;6.70;99.90;;;;;;4994893;28;20218;-68
2023/05/26 00:47:05;;;;;;;1.02;1.02;;;6.50;99.90;;;;;;4978037;28;20694;-68
2023/05/26 00:49:31;;;;;;;0.70;0.70;;;6.40;99.90;;;;;;4995181;28;20262;-69
2023/05/26 00:51:57;;;;;;;0.70;0.70;;;6.20;99.90;;;;;;4995236;28;20211;-69
2023/05/26 00:54:23;;;;;;;0.60;0.60;;;6.10;99.90;;;;;;4995141;28;20219;-70
2023/05/26 00:56:51;;;;;;;0.70;0.70;;;6.00;99.90;;;;;;4995256;28;20663;-69
2023/05/26 00:59:18;;;;;;;0.70;0.70;;;5.90;99.90;;;;;;4995224;28;20311;-69
2023/05/26 01:01:44;;;;;;;0.70;0.70;;;5.80;99.90;;;;;;4994996;28;20206;-68
2023/05/26 01:04:10;;;;;;;0.70;0.70;;;5.70;99.90;;;;;;4988401;28;20235;-68
2023/05/26 01:06:36;;;;;;;0.80;0.80;;;5.70;99.90;;;;;;4994823;28;20207;-68
2023/05/26 01:09:03;;;;;;;0.70;0.70;;;5.60;99.90;;;;;;4995915;28;20283;-68
2023/05/26 01:11:36;;;;;;;0.70;0.70;;;5.60;99.90;;;;;;4995037;28;20199;-69
2023/05/26 01:14:15;;;;;;;0.80;0.80;;;5.50;99.90;;;;;;4995063;28;20188;-69
2023/05/26 01:16:58;;;;;;;0.80;0.80;;;5.60;99.90;;;;;;4995099;28;20573;-69
2023/05/26 01:19:24;;;;;;;0.70;0.70;;;5.50;99.90;;;;;;4994654;28;20577;-68
2023/05/26 01:21:58;;;;;;;0.70;0.70;;;5.40;99.90;;;;;;4977568;28;20655;-69
2023/05/26 01:24:40;;;;;;;0.75;0.75;;;5.30;99.90;;;;;;4994647;28;20350;-68
2023/05/26 01:27:43;;;;;;;0.70;0.70;;;5.30;99.90;;;;;;4977311;28;20203;-69
2023/05/26 01:30:10;;;;;;;0.80;0.80;;;5.20;99.90;;;;;;4977107;28;20229;-68
2023/05/26 01:32:36;;;;;;;0.80;0.80;;;5.10;99.90;;;;;;4994674;28;20659;-69
2023/05/26 01:35:01;;;;;;;0.90;0.90;;;5.00;99.90;;;;;;4994774;28;20195;-69
2023/05/26 01:37:27;;;;;;;0.70;0.70;;;5.00;99.90;;;;;;4976815;28;20226;-69
2023/05/26 01:39:53;;;;;;;0.70;0.70;;;5.00;99.90;;;;;;4994770;28;20651;-69
2023/05/26 01:42:26;;;;;;;0.70;0.70;;;4.90;99.90;;;;;;4994375;28;20199;-68
2023/05/26 01:45:09;;;;;;;0.80;0.80;;;4.90;99.90;;;;;;4994207;28;20221;-68
2023/05/26 01:47:36;;;;;;;0.80;0.80;;;4.80;99.90;;;;;;4994326;28;20227;-69
2023/05/26 01:50:05;;;;;;;0.70;0.70;;;4.80;99.90;;;;;;4994403;28;20211;-69
2023/05/26 01:52:31;;;;;;;0.70;0.70;;;4.80;99.90;;;;;;4994260;28;20294;-69
2023/05/26 01:55:01;;;;;;;0.70;0.70;;;4.80;99.90;;;;;;4994318;28;20215;-69
2023/05/26 01:57:28;;;;;;;0.70;0.70;;;4.80;99.90;;;;;;4994385;28;20195;-69
2023/05/26 01:59:55;;;;;;;0.70;0.70;;;4.80;99.90;;;;;;4976888;28;20547;-69
2023/05/26 02:02:21;;;;;;;0.70;0.70;;;4.80;99.90;;;;;;4992154;28;20232;-68
2023/05/26 02:04:46;;;;;;;0.73;0.73;;;4.80;99.90;;;;;;4994179;28;20663;-69
2023/05/26 02:07:12;;;;;;;0.75;0.75;;;4.80;99.90;;;;;;4994220;28;20215;-69
2023/05/26 02:09:38;;;;;;;0.80;0.80;;;4.80;99.90;;;;;;4993944;28;20203;-68
2023/05/26 02:12:06;;;;;;;0.80;0.80;;;4.80;99.90;;;;;;4993982;28;20207;-69
2023/05/26 02:14:32;;;;;;;0.70;0.70;;;4.80;99.90;;;;;;4976414;28;20203;-69
2023/05/26 02:16:57;;;;;;;0.70;0.70;;;4.80;99.90;;;;;;4993937;28;20192;-68
2023/05/26 02:19:25;;;;;;;0.73;0.73;;;4.80;99.90;;;;;;4993741;28;20184;-68
2023/05/26 02:21:51;;;;;;;0.77;0.77;;;4.70;99.90;;;;;;4993899;28;20200;-69
2023/05/26 02:24:17;;;;;;;0.75;0.75;;;4.70;99.90;;;;;;4976173;28;20203;-69
2023/05/26 02:26:43;;;;;;;0.70;0.70;;;4.70;99.90;;;;;;4993664;28;20235;-68
2023/05/26 02:29:10;;;;;;;0.70;0.70;;;4.60;99.90;;;;;;4976357;28;20273;-69
2023/05/26 02:31:37;;;;;;;0.75;0.75;;;4.60;99.90;;;;;;4993459;28;20215;-69
2023/05/26 02:34:04;;;;;;;0.70;0.70;;;4.60;99.90;;;;;;4993751;28;20275;-69
2023/05/26 02:36:31;;;;;;;0.80;0.80;;;4.70;99.90;;;;;;4993268;28;20231;-69
2023/05/26 02:38:58;;;;;;;0.70;0.70;;;4.70;99.90;;;;;;4993654;28;20206;-69
2023/05/26 02:41:23;;;;;;;0.70;0.70;;;4.70;99.90;;;;;;4993397;28;20258;-69
2023/05/26 02:43:49;;;;;;;0.80;0.80;;;4.70;99.90;;;;;;4993290;28;20738;-68
2023/05/26 02:46:15;;;;;;;0.80;0.80;;;4.80;99.90;;;;;;4993363;28;20206;-68
2023/05/26 02:48:41;;;;;;;0.73;0.73;;;5.00;99.90;;;;;;4993345;28;20199;-68
2023/05/26 02:51:07;;;;;;;0.80;0.80;;;5.40;99.90;;;;;;4975850;28;20215;-68
2023/05/26 02:53:33;;;;;;;0.80;0.80;;;5.80;99.90;;;;;;4993035;28;20585;-68
2023/05/26 02:55:59;;;;;;;0.70;0.70;;;6.20;99.90;;;;;;4993247;28;20196;-68
2023/05/26 02:58:24;;;;;;;0.70;0.70;;;6.40;99.90;;;;;;4992748;28;20274;-68
2023/05/26 03:00:50;;;;;;;0.70;0.70;;;6.80;99.90;;;;;;4993083;28;20230;-68
2023/05/26 03:03:16;;;;;;;15.57;4.35;;;7.10;99.90;;;;;;4998378;28;20324;-68
2023/05/26 03:05:42;;;;;;;0.70;0.70;;;7.20;99.90;;;;;;4994969;28;20587;-69
2023/05/26 03:08:08;;;;;;;0.70;0.70;;;7.40;99.90;;;;;;4995145;28;20198;-68
2023/05/26 03:10:35;;;;;;;0.70;0.70;;;7.50;99.90;;;;;;5006121;28;20211;-68
2023/05/26 03:13:01;;;;;;;0.70;0.70;;;7.60;99.90;;;;;;4993161;28;20321;-68
2023/05/26 03:15:34;;;;;;;0.60;0.60;;;7.80;99.90;;;;;;4995347;28;20285;-69
2023/05/26 03:18:00;;;;;;;0.70;0.70;;;7.80;99.90;;;;;;4979628;28;20555;-69
2023/05/26 03:20:26;;;;;;;0.70;0.70;;;7.90;99.90;;;;;;4996711;28;20330;-69
2023/05/26 03:22:52;;;;;;;0.63;0.63;;;7.90;99.90;;;;;;4979634;28;20204;-69
2023/05/26 03:25:18;;;;;;;0.63;0.63;;;7.90;99.90;;;;;;4996898;28;20203;-70
2023/05/26 03:27:44;;;;;;;0.70;0.70;;;7.90;99.90;;;;;;4996867;28;20687;-69
2023/05/26 03:30:10;;;;;;;0.63;0.63;;;8.00;99.90;;;;;;4996822;28;20223;-69
2023/05/26 03:32:36;;;;;;;0.60;0.60;;;8.10;99.90;;;;;;4996558;28;20213;-69
2023/05/26 03:35:02;;;;;;;0.70;0.70;;;8.20;99.90;;;;;;4996865;28;20242;-69
2023/05/26 03:37:28;;;;;;;0.70;0.70;;;8.20;99.90;;;;;;4996331;28;20207;-69
2023/05/26 03:39:54;;;;;;;0.70;0.70;;;8.20;99.90;;;;;;4996805;28;20556;-70
2023/05/26 03:42:20;;;;;;;1.17;1.15;;;8.30;99.90;;;;;;4996550;28;20207;-69
2023/05/26 03:44:45;;;;;;;0.70;0.70;;;8.40;99.90;;;;;;4996402;28;20679;-69
2023/05/26 03:47:11;;;;;;;0.60;0.60;;;8.40;99.90;;;;;;4996551;28;20734;-69
2023/05/26 03:49:37;;;;;;;0.60;0.60;;;8.50;99.90;;;;;;4996300;28;20544;-69
2023/05/26 03:52:03;;;;;;;0.70;0.70;;;8.60;99.90;;;;;;4996453;28;20207;-69
2023/05/26 03:54:30;;;;;;;0.52;0.52;;;8.70;99.90;;;;;;4996177;28;20195;-69
2023/05/26 03:56:55;;;;;;;0.60;0.60;;;8.70;99.90;;;;;;4996103;28;20227;-70
2023/05/26 03:59:21;;;;;;;0.63;0.63;;;8.80;99.90;;;;;;4996076;28;20225;-70
2023/05/26 04:01:47;;;;;;;0.60;0.60;;;8.90;99.90;;;;;;4996229;28;20203;-70
2023/05/26 04:04:13;;;;;;;0.60;0.60;;;9.00;99.90;;;;;;4996194;28;20216;-70
2023/05/26 04:06:39;;;;;;;0.70;0.70;;;9.00;99.90;;;;;;4996242;28;20203;-69
2023/05/26 04:09:05;;;;;;;0.60;0.60;;;9.20;99.90;;;;;;4996263;28;20199;-69
2023/05/26 04:11:31;;;;;;;0.63;0.63;;;9.20;99.90;;;;;;4978318;28;20556;-69
2023/05/26 04:13:58;;;;;;;0.60;0.60;;;9.40;99.90;;;;;;4978555;28;20245;-70
2023/05/26 04:16:23;;;;;;;43.88;3.00;;;9.40;99.90;;;;;;4995695;28;20196;-70
2023/05/26 04:18:49;;;;;;;0.65;0.65;;;9.50;99.90;;;;;;4978413;28;20574;-69
2023/05/26 04:21:16;;;;;;;0.60;0.60;;;9.50;99.90;;;;;;4995845;28;20359;-69
2023/05/26 04:23:41;;;;;;;0.70;0.70;;;9.60;99.90;;;;;;4995775;28;20238;-68
2023/05/26 04:26:08;;;;;;;0.60;0.60;;;9.70;99.90;;;;;;4995255;28;20219;-68
2023/05/26 04:28:34;;;;;;;0.60;0.60;;;9.70;99.90;;;;;;4995439;28;20195;-68
2023/05/26 04:31:03;;;;;;;0.50;0.50;;;9.80;99.90;;;;;;4995552;28;20218;-68
2023/05/26 04:33:29;;;;;;;0.60;0.60;;;9.80;99.90;;;;;;4995389;28;20184;-68
2023/05/26 04:35:55;;;;;;;0.60;0.60;;;9.90;99.90;;;;;;4995518;28;20188;-68
2023/05/26 04:38:21;;;;;;;0.60;0.60;;;10.10;99.90;;;;;;4995397;28;20191;-68
2023/05/26 04:40:48;;;;;;;0.60;0.60;;;10.20;99.90;;;;;;4995552;28;20191;-68
2023/05/26 04:43:14;;;;;;;0.60;0.60;;;10.30;99.90;;;;;;4977933;28;20232;-68
2023/05/26 04:45:42;;;;;;;0.60;0.60;;;10.40;99.90;;;;;;4975888;28;20311;-68
2023/05/26 04:48:08;;;;;;;0.50;0.50;;;10.40;99.90;;;;;;4958559;28;20200;-68
2023/05/26 04:50:38;;;;;;;0.60;0.60;;;10.40;99.90;;;;;;4975646;28;20295;-68
2023/05/26 04:53:05;;;;;;;0.50;0.50;;;10.50;99.90;;;;;;4993577;28;20203;-68
2023/05/26 04:55:31;;;;;;;0.50;0.50;;;10.50;99.90;;;;;;4977613;28;20203;-68
2023/05/26 04:57:56;;;;;;;0.60;0.60;;;10.50;99.90;;;;;;4995187;28;20557;-68
2023/05/26 05:00:22;;;;;;;10.45;1.95;;;10.60;99.90;;;;;;4995033;28;20214;-68
2023/05/26 05:02:48;;;;;;;0.60;0.60;;;10.60;99.90;;;;;;4994602;28;20223;-68
2023/05/26 05:05:13;;;;;;;0.50;0.50;;;10.70;99.90;;;;;;4994959;28;20200;-68
2023/05/26 05:07:39;;;;;;;1.10;1.00;;;10.70;99.90;;;;;;4977424;28;20613;-68
2023/05/26 05:10:06;;;;;;;0.45;0.45;;;10.80;99.90;;;;;;4991891;28;20451;-68
2023/05/26 05:12:32;;;;;;;0.45;0.45;;;10.80;99.90;;;;;;4983076;28;20200;-68
2023/05/26 05:14:57;;;;;;;0.70;0.70;;;10.90;99.90;;;;;;4994928;28;20192;-68
2023/05/26 05:17:23;;;;;;;0.50;0.50;;;10.90;99.90;;;;;;4994610;28;20199;-68
2023/05/26 05:19:49;;;;;;;0.60;0.60;;;11.00;99.90;;;;;;4977299;28;20667;-68
2023/05/26 05:22:15;;;;;;;0.57;0.57;;;11.10;99.90;;;;;;4994780;28;20677;-68
2023/05/26 05:24:40;;;;;;;0.60;0.60;;;11.10;99.90;;;;;;4994499;28;20195;-68
2023/05/26 05:27:06;;;;;;;0.60;0.60;;;11.30;99.90;;;;;;4994667;28;20192;-68
2023/05/26 05:29:32;;;;;;;0.50;0.50;;;11.40;99.90;;;;;;4994504;28;20200;-68
2023/05/26 05:31:57;;;;;;;0.50;0.50;;;11.50;99.90;;;;;;4994557;28;20570;-68
2023/05/26 05:34:23;;;;;;;0.47;0.47;;;11.60;99.90;;;;;;4994324;28;20198;-68
2023/05/26 05:36:49;;;;;;;0.40;0.40;;;11.60;99.90;;;;;;4976270;28;20207;-68
2023/05/26 05:39:15;;;;;;;1.17;1.08;;;11.70;99.90;;;;;;4994239;28;20203;-69
2023/05/26 05:41:40;;;;;;;6.80;1.15;;;11.70;99.90;;;;;;4994238;28;20281;-68
2023/05/26 05:44:06;;;;;;;0.60;0.60;;;11.70;99.90;;;;;;4994090;28;20203;-68
2023/05/26 05:46:32;;;;;;;0.50;0.50;;;11.70;99.90;;;;;;4976505;28;20295;-68
2023/05/26 05:48:57;;;;;;;0.60;0.60;;;11.90;99.90;;;;;;4994085;28;20195;-68
2023/05/26 05:51:23;;;;;;;0.60;0.60;;;12.00;99.90;;;;;;4993986;28;20207;-68
2023/05/26 05:53:49;;;;;;;0.50;0.50;;;12.10;99.90;;;;;;4976785;28;20706;-68
2023/05/26 05:56:14;;;;;;;0.60;0.60;;;12.30;99.90;;;;;;4994172;28;20203;-68
2023/05/26 05:58:40;;;;;;;0.50;0.50;;;12.20;99.90;;;;;;4976311;28;20195;-68
2023/05/26 06:01:07;;;;;;;0.52;0.52;;;12.10;99.90;;;;;;4976412;28;20217;-68
2023/05/26 06:03:32;;;;;;;0.50;0.50;;;12.20;99.90;;;;;;4993528;28;20576;-68
2023/05/26 06:05:58;;;;;;;0.50;0.50;;;12.30;99.90;;;;;;4976481;28;20203;-68
2023/05/26 06:08:24;;;;;;;0.50;0.50;;;12.50;99.90;;;;;;4993676;28;20195;-68
2023/05/26 06:10:50;;;;;;;0.50;0.50;;;12.60;99.90;;;;;;4976277;28;20216;-68
2023/05/26 06:13:15;;;;;;;0.47;0.47;;;12.60;99.90;;;;;;4993796;28;20195;-68
2023/05/26 06:15:41;;;;;;;0.43;0.43;;;12.70;99.90;;;;;;4993661;28;20199;-68
2023/05/26 06:18:07;;;;;;;0.45;0.45;;;12.80;99.90;;;;;;4993793;28;20191;-68
2023/05/26 06:20:32;;;;;;;0.43;0.43;;;12.90;99.90;;;;;;4993522;28;20195;-68
2023/05/26 06:22:58;;;;;;;0.50;0.50;;;13.00;99.90;;;;;;4993526;28;20207;-68
2023/05/26 06:25:24;;;;;;;0.50;0.50;;;13.30;99.90;;;;;;4993365;28;20199;-69
2023/05/26 06:27:50;;;;;;;0.50;0.50;;;13.30;99.90;;;;;;4993617;28;20199;-69
2023/05/26 06:30:15;;;;;;;0.50;0.50;;;13.30;99.90;;;;;;4993761;28;20693;-69
2023/05/26 06:32:41;;;;;;;0.50;0.50;;;13.30;99.90;;;;;;4993400;28;20202;-69
2023/05/26 06:35:07;;;;;;;0.50;0.50;;;13.50;99.90;;;;;;4993375;28;20270;-68
2023/05/26 06:37:33;;;;;;;0.40;0.40;;;13.50;99.50;;;;;;4975109;28;20623;-68
2023/05/26 06:39:59;;;;;;;0.55;0.55;;;13.40;98.40;;;;;;4993273;28;20191;-68
2023/05/26 06:42:24;;;;;;;0.50;0.50;;;13.40;97.50;;;;;;4975422;28;20663;-68
2023/05/26 06:44:50;;;;;;;0.50;0.50;;;13.20;97.10;;;;;;4992788;28;20203;-69
2023/05/26 06:47:18;;;;;;;0.40;0.40;;;13.10;96.60;;;;;;4975545;28;20210;-68
2023/05/26 06:49:44;;;;;;;0.50;0.50;;;13.30;96.10;;;;;;4992982;28;20203;-68
2023/05/26 06:52:10;;;;;;;0.50;0.50;;;13.40;95.80;;;;;;4993039;28;20340;-68
2023/05/26 06:54:36;;;;;;;0.50;0.50;;;13.50;95.90;;;;;;4993007;28;20207;-68
2023/05/26 06:57:02;;;;;;;0.60;0.60;;;13.50;94.80;;;;;;4992999;28;20274;-68
2023/05/26 06:59:28;;;;;;;0.50;0.50;;;13.50;93.60;;;;;;4992725;28;20564;-68
2023/05/26 07:01:54;;;;;;;0.50;0.50;;;13.60;93.70;;;;;;4992623;28;20199;-68
2023/05/26 07:04:20;;;;;;;0.43;0.43;;;13.60;93.50;;;;;;4975124;28;20621;-68
2023/05/26 07:06:46;;;;;;;0.50;0.50;;;13.50;94.00;;;;;;4975502;28;20210;-68
2023/05/26 07:09:12;;;;;;;0.40;0.40;;;13.50;91.70;;;;;;4993176;28;20538;-68
2023/05/26 07:11:37;;;;;;;18.73;1.40;;;13.50;92.20;;;;;;4992791;28;20218;-68
2023/05/26 07:14:03;;;;;;;0.40;0.40;;;13.60;90.90;;;;;;4975905;28;20254;-68
2023/05/26 07:16:29;;;;;;;0.40;0.40;;;13.60;90.60;;;;;;4992752;28;20266;-68
2023/05/26 07:18:55;;;;;;;0.40;0.40;;;13.60;90.40;;;;;;4992928;28;20211;-68
2023/05/26 07:21:22;;;;;;;0.40;0.40;;;13.70;89.00;;;;;;4992661;28;20298;-68
2023/05/26 07:23:48;;;;;;;0.40;0.40;;;13.70;87.40;;;;;;4992960;28;20199;-68
2023/05/26 07:26:14;;;;;;;0.50;0.50;;;13.60;87.40;;;;;;4992797;28;20560;-68
2023/05/26 07:28:41;;;;;;;0.40;0.40;;;14.00;87.30;;;;;;4992818;28;20210;-68
2023/05/26 07:31:06;;;;;;;0.43;0.43;;;14.30;87.90;;;;;;4992830;28;20235;-67
2023/05/26 07:33:32;;;;;;;0.35;0.35;;;14.40;85.60;;;;;;4992591;28;20616;-69
2023/05/26 07:35:58;;;;;;;1.25;1.15;;;14.40;87.60;;;;;;4992808;28;20279;-68
2023/05/26 07:38:24;;;;;;;0.40;0.40;;;14.20;86.90;;;;;;4975056;28;20207;-68
2023/05/26 07:40:51;;;;;;;0.40;0.40;;;14.10;87.20;;;;;;4992552;28;20235;-68
2023/05/26 07:43:17;;;;;;;0.40;0.40;;;14.00;88.20;;;;;;4992364;28;20206;-68
2023/05/26 07:45:43;;;;;;;0.45;0.45;;;14.40;89.20;;;;;;4992589;28;20219;-68
2023/05/26 07:48:08;;;;;;;0.40;0.40;;;14.80;88.70;;;;;;4992691;28;20215;-68
2023/05/26 07:50:34;;;;;;;0.40;0.40;;;15.10;87.60;;;;;;4992418;28;20203;-68
2023/05/26 07:53:00;;;;;;;0.43;0.43;;;15.00;88.50;;;;;;4992585;28;20283;-68
2023/05/26 07:55:26;;;;;;;0.40;0.40;;;15.20;90.50;;;;;;4992388;28;20243;-69
2023/05/26 07:57:51;;;;;;;0.30;0.30;;;15.60;88.10;;;;;;4992738;28;20187;-68
2023/05/26 08:00:17;;;;;;;0.40;0.40;;;15.90;87.90;;;;;;4992902;28;20706;-68
2023/05/26 08:02:43;;;;;;;0.40;0.40;;;15.90;83.20;;;;;;4994898;28;20223;-68
2023/05/26 08:05:09;;;;;;;0.40;0.40;;;15.90;83.30;;;;;;4995997;28;20211;-68
2023/05/26 08:07:35;;;;;;;0.40;0.40;;;15.80;82.50;;;;;;4995843;28;20647;-68
2023/05/26 08:10:02;;;;;;;0.32;0.32;;;15.90;83.30;;;;;;4996559;28;20188;-68
2023/05/26 08:12:28;;;;;;;0.40;0.40;;;16.30;83.70;;;;;;4995761;28;20222;-68
2023/05/26 08:14:54;;;;;;;0.30;0.30;;;16.30;81.40;;;;;;4996084;28;20199;-68
2023/05/26 08:17:20;;;;;;;0.65;0.65;;;16.50;82.60;;;;;;4995769;28;20564;-68
2023/05/26 08:19:46;;;;;;;0.38;0.38;;;16.50;79.50;;;;;;4995935;28;20199;-68
2023/05/26 08:22:12;;;;;;;0.50;0.50;;;16.10;77.40;;;;;;4978389;28;20199;-68
2023/05/26 08:24:37;;;;;;;0.30;0.30;;;16.00;81.00;;;;;;4995687;28;20227;-68
2023/05/26 08:27:03;;;;;;;0.38;0.38;;;15.90;80.70;;;;;;4995874;28;20219;-68
2023/05/26 08:29:29;;;;;;;0.73;0.60;;;15.70;79.20;;;;;;4995663;28;20655;-68
2023/05/26 08:31:55;;;;;;;0.75;0.60;;;15.70;80.40;;;;;;4978327;28;20214;-68
2023/05/26 08:34:21;;;;;;;0.68;0.68;;;15.60;78.50;;;;;;4995692;28;20194;-68
2023/05/26 08:36:46;;;;;;;0.40;0.40;;;15.90;78.30;;;;;;4995444;28;20257;-68
2023/05/26 08:39:12;;;;;;;0.30;0.30;;;15.80;75.80;;;;;;4995681;28;20268;-69
2023/05/26 08:41:53;;;;;;;0.32;0.32;;;15.90;76.10;;;;;;4978015;28;20574;-68
2023/05/26 08:44:20;;;;;;;0.40;0.40;;;16.20;76.00;;;;;;4995410;28;20675;-69
2023/05/26 08:46:55;;;;;;;0.50;0.50;;;16.20;77.00;;;;;;4995562;28;20582;-68
2023/05/26 08:49:22;;;;;;;0.20;0.20;;;16.30;75.60;;;;;;4995363;28;20191;-69
2023/05/26 08:52:04;;;;;;;0.30;0.30;;;16.30;74.80;;;;;;4995344;28;20203;-68
2023/05/26 08:54:30;;;;;;;0.40;0.40;;;16.80;72.60;;;;;;4995319;28;20195;-69
2023/05/26 08:56:58;;;;;;;0.50;0.50;;;17.10;72.30;;;;;;4977649;28;20195;-68
2023/05/26 08:59:24;;;;;;;0.30;0.30;;;17.00;78.00;;;;;;4995052;28;20190;-69
2023/05/26 09:01:50;;;;;;;0.30;0.30;;;17.10;72.60;;;;;;4994659;28;20659;-69
2023/05/26 09:04:15;;;;;;;0.43;0.43;;;17.10;73.00;;;;;;4977648;28;20207;-69
2023/05/26 09:06:43;;;;;;;0.30;0.30;;;17.30;73.30;;;;;;4994925;28;20195;-69
2023/05/26 09:09:09;;;;;;;0.47;0.47;;;17.10;73.90;;;;;;4977562;28;20231;-68
2023/05/26 09:11:40;;;;;;;0.50;0.50;;;17.40;73.10;;;;;;4994638;28;20289;-69
2023/05/26 09:14:06;;;;;;;0.20;0.20;;;17.50;71.30;;;;;;4995086;28;20234;-68
2023/05/26 09:16:32;;;;;;;0.40;0.40;;;17.70;72.40;;;;;;4994825;28;20219;-68
2023/05/26 09:19:00;;;;;;;0.30;0.30;;;17.50;70.50;;;;;;4995216;28;20201;-68
2023/05/26 09:21:27;;;;;;;0.47;0.45;;;17.40;70.70;;;;;;4994562;28;20634;-70
2023/05/26 09:23:58;;;;;;;1.17;0.60;;;17.40;70.50;;;;;;4977375;28;20204;-69
2023/05/26 09:26:30;;;;;;;0.30;0.30;;;17.30;69.00;;;;;;4994739;28;20199;-69
2023/05/26 09:28:56;;;;;;;0.30;0.30;;;17.60;71.10;;;;;;4977370;28;20298;-67
2023/05/26 09:31:23;;;;;;;0.30;0.30;;;18.00;73.00;;;;;;4994387;28;20213;-68
2023/05/26 09:33:49;;;;;;;0.20;0.20;;;18.70;69.90;;;;;;4994792;28;20562;-67
2023/05/26 09:36:16;;;;;;;0.20;0.20;;;18.90;69.30;;;;;;4994915;28;20195;-67
2023/05/26 09:38:44;;;;;;;0.70;0.40;;;18.90;69.80;;;;;;4994853;28;20267;-67
2023/05/26 09:41:10;;;;;;;0.30;0.30;;;18.90;67.20;;;;;;4995025;28;20211;-68
2023/05/26 09:43:37;;;;;;;0.30;0.30;;;18.70;66.50;;;;;;4994202;28;20203;-68
2023/05/26 09:46:22;;;;;;;16.20;0.50;;;17.60;65.30;;;;;;4977371;28;20204;-67
2023/05/26 09:48:50;;;;;;;0.20;0.20;;;17.80;67.50;;;;;;4995285;28;20191;-68
2023/05/26 09:51:20;;;;;;;0.32;0.32;;;18.20;68.60;;;;;;4994651;28;20219;-67
2023/05/26 09:53:46;;;;;;;0.20;0.20;;;18.70;66.40;;;;;;4994211;28;20200;-68
2023/05/26 09:56:16;;;;;;;0.20;0.20;;;18.80;65.80;;;;;;4994302;28;20196;-67
2023/05/26 09:58:45;;;;;;;0.30;0.30;;;18.60;67.30;;;;;;4994464;28;20215;-68
2023/05/26 10:01:12;;;;;;;0.20;0.20;;;18.90;68.50;;;;;;4994292;28;20214;-68
2023/05/26 10:03:38;;;;;;;0.20;0.20;;;18.80;65.40;;;;;;4994061;28;20235;-68
2023/05/26 10:06:05;;;;;;;0.20;0.20;;;18.90;66.30;;;;;;4993925;28;20203;-68
2023/05/26 10:08:32;;;;;;;0.30;0.30;;;19.20;70.80;;;;;;4994315;28;20210;-68
2023/05/26 10:10:58;;;;;;;0.20;0.20;;;19.30;68.90;;;;;;4994447;28;20704;-68
2023/05/26 10:13:25;;;;;;;0.38;0.38;;;19.40;66.00;;;;;;4976527;28;20199;-68
2023/05/26 10:15:51;;;;;;;0.35;0.35;;;19.80;67.60;;;;;;4994453;28;20194;-68
2023/05/26 10:18:17;;;;;;;0.30;0.30;;;20.10;64.00;;;;;;4976737;28;20204;-68
2023/05/26 10:20:47;;;;;;;0.20;0.20;;;20.30;65.50;;;;;;4976629;28;20246;-68
2023/05/26 10:23:31;;;;;;;0.20;0.20;;;20.00;63.80;;;;;;4993875;28;20203;-68
2023/05/26 10:25:56;;;;;;;0.20;0.20;;;19.60;66.30;;;;;;4994284;28;20640;-68
2023/05/26 10:28:37;;;;;;;0.20;0.20;;;19.90;66.20;;;;;;4993699;28;20224;-68
2023/05/26 10:31:03;;;;;;;0.57;0.45;;;19.50;59.30;;;;;;4994139;28;20737;-68
2023/05/26 10:33:44;;;;;;;0.20;0.20;;;19.40;62.80;;;;;;4976406;28;20199;-68
2023/05/26 10:36:15;;;;;;;0.22;0.22;;;19.40;61.60;;;;;;4994044;28;20230;-69
2023/05/26 10:38:54;;;;;;;0.20;0.20;;;19.40;63.90;;;;;;4993884;28;20195;-68
2023/05/26 10:41:31;;;;;;;0.40;0.40;;;19.10;63.20;;;;;;4993853;28;20203;-68
2023/05/26 10:43:58;;;;;;;0.40;0.40;;;19.00;63.20;;;;;;4993703;28;20693;-68
2023/05/26 10:46:55;;;;;;;0.20;0.20;;;18.70;60.80;;;;;;4976165;28;20199;-68
2023/05/26 10:49:23;;;;;;;0.22;0.22;;;18.70;62.10;;;;;;4976444;28;20581;-68
2023/05/26 10:51:53;;;;;;;0.25;0.25;;;18.40;60.20;;;;;;4993904;28;20262;-68
2023/05/26 10:54:22;;;;;;;0.22;0.22;;;18.50;58.80;;;;;;4993723;28;20647;-67
2023/05/26 10:56:53;;;;;;;0.30;0.30;;;18.70;61.30;;;;;;4976298;28;20196;-68
2023/05/26 10:59:36;;;;;;;0.30;0.30;;;19.20;62.10;;;;;;4993523;28;20187;-68
2023/05/26 11:02:07;;;;;;;0.30;0.30;;;19.20;59.30;;;;;;4993312;28;20651;-68
2023/05/26 11:04:46;;;;;;;0.30;0.30;;;19.50;59.50;;;;;;4973970;28;20204;-68
2023/05/26 11:07:26;;;;;;;0.20;0.20;;;20.00;62.10;;;;;;4974190;28;20674;-69
2023/05/26 11:10:05;;;;;;;18.83;0.95;;;20.50;59.20;;;;;;4974314;28;20196;-68
2023/05/26 11:12:35;;;;;;;0.22;0.22;;;20.50;60.70;;;;;;4973803;28;20212;-68
2023/05/26 11:15:32;;;;;;;0.30;0.30;;;20.50;60.00;;;;;;4956831;28;20200;-68
2023/05/26 11:18:06;;;;;;;0.28;0.28;;;20.50;55.70;;;;;;4974143;28;20196;-68
2023/05/26 11:20:32;;;;;;;0.20;0.20;;;20.10;57.00;;;;;;4956482;28;20200;-68
2023/05/26 11:22:58;;;;;;;0.20;0.20;;;20.10;57.60;;;;;;4974072;28;20196;-68
2023/05/26 11:25:27;;;;;;;0.30;0.30;;;20.30;56.60;;;;;;4966165;28;20204;-68
2023/05/26 11:27:53;;;;;;;1.02;0.68;;;20.20;56.80;;;;;;4993655;28;20198;-68
2023/05/26 11:30:20;;;;;;;1.73;0.38;;;19.60;56.10;;;;;;4993244;28;20625;-68
2023/05/26 11:32:50;;;;;;;0.20;0.20;;;19.30;58.90;;;;;;4992147;28;20270;-68
2023/05/26 11:35:27;;;;;;;0.30;0.30;;;19.00;59.40;;;;;;4993790;28;20257;-68
2023/05/26 11:37:55;;;;;;;0.20;0.20;;;18.80;59.70;;;;;;4997170;28;20194;-68
2023/05/26 11:40:21;;;;;;;0.82;0.75;;;19.10;59.10;;;;;;4996957;28;20199;-68
2023/05/26 11:42:52;;;;;;;0.70;0.68;;;19.50;60.10;;;;;;4996559;28;20713;-68
2023/05/26 11:45:19;;;;;;;0.30;0.30;;;19.80;60.60;;;;;;4996331;28;20187;-67
2023/05/26 11:47:44;;;;;;;0.38;0.38;;;19.30;58.10;;;;;;4960157;28;20695;-68
2023/05/26 11:50:11;;;;;;;0.20;0.20;;;19.20;60.30;;;;;;4960173;28;20200;-68
2023/05/26 11:52:45;;;;;;;1.75;1.10;;;18.90;57.70;;;;;;4977219;28;20208;-68
2023/05/26 11:55:11;;;;;;;0.20;0.20;;;18.90;59.70;;;;;;4977605;28;20193;-68
2023/05/26 11:57:37;;;;;;;1.27;0.80;;;19.10;60.20;;;;;;4977167;28;20255;-68
2023/05/26 12:00:09;;;;;;;0.30;0.30;;;19.20;61.10;;;;;;4990937;28;20208;-68
2023/05/26 12:02:35;;;;;;;0.95;0.40;;;19.00;59.10;;;;;;4996371;28;20227;-68
2023/05/26 12:05:26;;;;;;;0.45;0.45;;;18.90;58.10;;;;;;4979022;28;20216;-68
2023/05/26 12:08:05;;;;;;;8.32;0.68;;;18.50;58.70;;;;;;4996823;28;20192;-68
2023/05/26 12:10:31;;;;;;;0.20;0.20;;;18.30;60.50;;;;;;4996431;28;20330;-68
2023/05/26 12:12:58;;;;;;;5.47;0.82;;;18.40;59.00;;;;;;4996550;28;20196;-68
2023/05/26 12:15:24;;;;;;;0.20;0.20;;;18.80;58.70;;;;;;4978864;28;20229;-68
2023/05/26 12:17:54;;;;;;;0.20;0.20;;;19.00;59.20;;;;;;4996671;28;20200;-68
2023/05/26 12:20:21;;;;;;;0.98;0.40;;;19.00;59.20;;;;;;4996395;28;20192;-68
2023/05/26 12:23:02;;;;;;;0.40;0.40;;;19.10;60.10;;;;;;4978756;28;20578;-68
2023/05/26 12:25:32;;;;;;;0.30;0.30;;;19.80;58.50;;;;;;4996023;28;20215;-68
2023/05/26 12:27:58;;;;;;;0.40;0.40;;;20.80;62.00;;;;;;4979014;28;20195;-68
2023/05/26 12:30:28;;;;;;;0.22;0.22;;;21.10;57.10;;;;;;4978869;28;20199;-68
2023/05/26 12:32:55;;;;;;;0.45;0.45;;;21.30;57.30;;;;;;4996475;28;20188;-68
2023/05/26 12:35:20;;;;;;;0.20;0.20;;;20.90;54.00;;;;;;4978559;28;20594;-68
2023/05/26 12:37:46;;;;;;;0.50;0.50;;;20.50;56.00;;;;;;4996112;28;20202;-68
2023/05/26 12:40:13;;;;;;;0.28;0.28;;;20.60;56.70;;;;;;4996133;28;20258;-68
2023/05/26 12:42:39;;;;;;;0.20;0.20;;;20.60;56.90;;;;;;4995650;28;20222;-69
2023/05/26 12:45:06;;;;;;;0.20;0.20;;;20.40;56.40;;;;;;4978110;28;20203;-69
2023/05/26 12:47:32;;;;;;;0.20;0.20;;;20.50;58.50;;;;;;4995449;28;20682;-68
2023/05/26 12:49:58;;;;;;;0.20;0.20;;;20.20;56.10;;;;;;4995982;28;20306;-68
2023/05/26 12:52:24;;;;;;;0.20;0.20;;;20.50;57.10;;;;;;4995786;28;20730;-69